sensor_id;sensor_type;location;lat;lon;timestamp;temperature;humidity
82836;DHT22;72587;50.746;8.246;2024-02-21T00:01:22;7.30;99.90
82836;DHT22;72587;50.746;8.246;2024-02-21T00:03:48;7.30;99.90
82836;DHT22;72587;50.746;8.246;2024-02-21T00:06:13;7.40;99.90
82836;DHT22;72587;50.746;8.246;2024-02-21T00:08:39;7.30;99.90
82836;DHT22;72587;50.746;8.246;2024-02-21T00:11:05;7.30;99.90
82836;DHT22;72587;50.746;8.246;2024-02-21T00:13:30;7.20;99.90
82836;DHT22;72587;50.746;8.246;2024-02-21T00:15:56;7.20;99.90
82836;DHT22;72587;50.746;8.246;2024-02-21T00:18:22;7.20;99.90
82836;DHT22;72587;50.746;8.246;2024-02-21T00:20:47;7.30;99.90
82836;DHT22;72587;50.746;8.246;2024-02-21T00:23:13;7.30;99.90
82836;DHT22;72587;50.746;8.246;2024-02-21T00:25:39;7.20;99.90
82836;DHT22;72587;50.746;8.246;2024-02-21T00:28:05;7.30;99.90
82836;DHT22;72587;50.746;8.246;2024-02-21T00:30:31;7.40;99.90
82836;DHT22;72587;50.746;8.246;2024-02-21T00:32:57;7.40;99.90
82836;DHT22;72587;50.746;8.246;2024-02-21T00:35:22;7.40;99.90
82836;DHT22;72587;50.746;8.246;2024-02-21T00:37:48;7.30;99.90
82836;DHT22;72587;50.746;8.246;2024-02-21T00:40:13;7.40;99.90
82836;DHT22;72587;50.746;8.246;2024-02-21T00:42:48;7.40;99.90
82836;DHT22;72587;50.746;8.246;2024-02-21T00:45:14;7.40;99.90
82836;DHT22;72587;50.746;8.246;2024-02-21T00:47:39;7.30;99.90
82836;DHT22;72587;50.746;8.246;2024-02-21T00:50:05;7.30;99.90
82836;DHT22;72587;50.746;8.246;2024-02-21T00:52:33;7.30;99.90
82836;DHT22;72587;50.746;8.246;2024-02-21T00:54:58;7.30;99.90
82836;DHT22;72587;50.746;8.246;2024-02-21T00:57:24;7.30;99.90
82836;DHT22;72587;50.746;8.246;2024-02-21T00:59:50;7.40;99.90
82836;DHT22;72587;50.746;8.246;2024-02-21T01:02:15;7.40;99.90
82836;DHT22;72587;50.746;8.246;2024-02-21T01:04:41;7.40;99.90
82836;DHT22;72587;50.746;8.246;2024-02-21T01:07:06;7.40;99.90
82836;DHT22;72587;50.746;8.246;2024-02-21T01:09:32;7.40;99.90
82836;DHT22;72587;50.746;8.246;2024-02-21T01:11:57;7.40;99.90
82836;DHT22;72587;50.746;8.246;2024-02-21T01:14:23;7.40;99.90
82836;DHT22;72587;50.746;8.246;2024-02-21T01:16:48;7.40;99.90
82836;DHT22;72587;50.746;8.246;2024-02-21T01:19:14;7.40;99.90
82836;DHT22;72587;50.746;8.246;2024-02-21T01:21:40;7.40;99.90
82836;DHT22;72587;50.746;8.246;2024-02-21T01:24:05;7.40;99.90
82836;DHT22;72587;50.746;8.246;2024-02-21T01:26:31;7.40;99.90
82836;DHT22;72587;50.746;8.246;2024-02-21T01:28:57;7.50;99.90
82836;DHT22;72587;50.746;8.246;2024-02-21T01:31:22;7.50;99.90
82836;DHT22;72587;50.746;8.246;2024-02-21T01:33:48;7.50;99.90
82836;DHT22;72587;50.746;8.246;2024-02-21T01:36:13;7.60;99.90
82836;DHT22;72587;50.746;8.246;2024-02-21T01:38:39;7.60;99.90
82836;DHT22;72587;50.746;8.246;2024-02-21T01:41:04;7.50;99.90
82836;DHT22;72587;50.746;8.246;2024-02-21T01:43:30;7.50;99.90
82836;DHT22;72587;50.746;8.246;2024-02-21T01:45:56;7.60;99.90
82836;DHT22;72587;50.746;8.246;2024-02-21T01:48:23;7.50;99.90
82836;DHT22;72587;50.746;8.246;2024-02-21T01:50:49;7.60;99.90
82836;DHT22;72587;50.746;8.246;2024-02-21T01:53:21;7.50;99.90
82836;DHT22;72587;50.746;8.246;2024-02-21T01:55:47;7.50;99.90
82836;DHT22;72587;50.746;8.246;2024-02-21T01:58:16;7.50;99.90
82836;DHT22;72587;50.746;8.246;2024-02-21T02:00:43;7.50;99.90
82836;DHT22;72587;50.746;8.246;2024-02-21T02:03:10;7.40;99.90
82836;DHT22;72587;50.746;8.246;2024-02-21T02:05:51;7.50;99.90
82836;DHT22;72587;50.746;8.246;2024-02-21T02:08:18;7.50;99.90
82836;DHT22;72587;50.746;8.246;2024-02-21T02:10:44;7.50;99.90
82836;DHT22;72587;50.746;8.246;2024-02-21T02:13:11;7.60;99.90
82836;DHT22;72587;50.746;8.246;2024-02-21T02:15:50;7.50;99.90
82836;DHT22;72587;50.746;8.246;2024-02-21T02:18:16;7.60;99.90
82836;DHT22;72587;50.746;8.246;2024-02-21T02:20:44;7.50;99.90
82836;DHT22;72587;50.746;8.246;2024-02-21T02:23:12;7.60;99.90
82836;DHT22;72587;50.746;8.246;2024-02-21T02:25:39;7.60;99.90
82836;DHT22;72587;50.746;8.246;2024-02-21T02:28:08;7.60;99.90
82836;DHT22;72587;50.746;8.246;2024-02-21T02:30:35;7.50;99.90
82836;DHT22;72587;50.746;8.246;2024-02-21T02:33:02;7.60;99.90
82836;DHT22;72587;50.746;8.246;2024-02-21T02:35:28;7.60;99.90
82836;DHT22;72587;50.746;8.246;2024-02-21T02:37:53;7.60;99.90
82836;DHT22;72587;50.746;8.246;2024-02-21T02:40:19;7.60;99.90
82836;DHT22;72587;50.746;8.246;2024-02-21T02:42:45;7.70;99.90
82836;DHT22;72587;50.746;8.246;2024-02-21T02:45:11;7.70;99.90
82836;DHT22;72587;50.746;8.246;2024-02-21T02:47:37;7.60;99.90
82836;DHT22;72587;50.746;8.246;2024-02-21T02:50:02;7.60;99.90
82836;DHT22;72587;50.746;8.246;2024-02-21T02:52:28;7.50;99.90
82836;DHT22;72587;50.746;8.246;2024-02-21T02:54:54;7.50;99.90
82836;DHT22;72587;50.746;8.246;2024-02-21T02:57:21;7.40;99.90
82836;DHT22;72587;50.746;8.246;2024-02-21T02:59:50;7.50;99.90
82836;DHT22;72587;50.746;8.246;2024-02-21T03:02:16;7.50;99.90
82836;DHT22;72587;50.746;8.246;2024-02-21T03:04:42;7.50;99.90
82836;DHT22;72587;50.746;8.246;2024-02-21T03:07:08;7.40;99.90
82836;DHT22;72587;50.746;8.246;2024-02-21T03:09:34;7.40;99.90
82836;DHT22;72587;50.746;8.246;2024-02-21T03:11:59;7.40;99.90
82836;DHT22;72587;50.746;8.246;2024-02-21T03:14:31;7.30;99.90
82836;DHT22;72587;50.746;8.246;2024-02-21T03:16:58;7.30;99.90
82836;DHT22;72587;50.746;8.246;2024-02-21T03:19:24;7.30;99.90
82836;DHT22;72587;50.746;8.246;2024-02-21T03:21:49;7.30;99.90
82836;DHT22;72587;50.746;8.246;2024-02-21T03:24:16;7.30;99.90
82836;DHT22;72587;50.746;8.246;2024-02-21T03:26:42;7.30;99.90
82836;DHT22;72587;50.746;8.246;2024-02-21T03:29:08;7.30;99.90
82836;DHT22;72587;50.746;8.246;2024-02-21T03:31:34;7.30;99.90
82836;DHT22;72587;50.746;8.246;2024-02-21T03:34:00;7.30;99.90
82836;DHT22;72587;50.746;8.246;2024-02-21T03:36:26;7.30;99.90
82836;DHT22;72587;50.746;8.246;2024-02-21T03:38:52;7.40;99.90
82836;DHT22;72587;50.746;8.246;2024-02-21T03:41:17;7.40;99.90
82836;DHT22;72587;50.746;8.246;2024-02-21T03:43:43;7.30;99.90
82836;DHT22;72587;50.746;8.246;2024-02-21T03:46:08;7.20;99.90
82836;DHT22;72587;50.746;8.246;2024-02-21T03:48:34;7.20;99.90
82836;DHT22;72587;50.746;8.246;2024-02-21T03:50:59;7.30;99.90
82836;DHT22;72587;50.746;8.246;2024-02-21T03:53:25;7.20;99.90
82836;DHT22;72587;50.746;8.246;2024-02-21T03:55:51;7.20;99.90
82836;DHT22;72587;50.746;8.246;2024-02-21T03:58:16;7.30;99.90
82836;DHT22;72587;50.746;8.246;2024-02-21T04:00:42;7.30;99.90
82836;DHT22;72587;50.746;8.246;2024-02-21T04:03:07;7.20;99.90
82836;DHT22;72587;50.746;8.246;2024-02-21T04:05:33;7.20;99.90
82836;DHT22;72587;50.746;8.246;2024-02-21T04:07:58;7.20;99.90
82836;DHT22;72587;50.746;8.246;2024-02-21T04:10:24;7.30;99.90
82836;DHT22;72587;50.746;8.246;2024-02-21T04:12:50;7.40;99.90
82836;DHT22;72587;50.746;8.246;2024-02-21T04:15:16;7.30;99.90
82836;DHT22;72587;50.746;8.246;2024-02-21T04:17:42;7.30;99.90
82836;DHT22;72587;50.746;8.246;2024-02-21T04:20:14;7.40;99.90
82836;DHT22;72587;50.746;8.246;2024-02-21T04:22:40;7.40;99.90
82836;DHT22;72587;50.746;8.246;2024-02-21T04:25:06;7.50;99.90
82836;DHT22;72587;50.746;8.246;2024-02-21T04:27:32;7.40;99.90
82836;DHT22;72587;50.746;8.246;2024-02-21T04:29:57;7.40;99.90
82836;DHT22;72587;50.746;8.246;2024-02-21T04:32:23;7.30;99.90
82836;DHT22;72587;50.746;8.246;2024-02-21T04:34:49;7.30;99.90
82836;DHT22;72587;50.746;8.246;2024-02-21T04:37:14;7.20;99.90
82836;DHT22;72587;50.746;8.246;2024-02-21T04:39:40;7.30;99.90
82836;DHT22;72587;50.746;8.246;2024-02-21T04:42:06;7.30;99.90
82836;DHT22;72587;50.746;8.246;2024-02-21T04:44:31;7.20;99.90
82836;DHT22;72587;50.746;8.246;2024-02-21T04:46:57;7.20;99.90
82836;DHT22;72587;50.746;8.246;2024-02-21T04:49:23;7.20;99.90
82836;DHT22;72587;50.746;8.246;2024-02-21T04:51:48;7.20;99.90
82836;DHT22;72587;50.746;8.246;2024-02-21T04:54:14;7.20;99.90
82836;DHT22;72587;50.746;8.246;2024-02-21T04:56:40;7.20;99.90
82836;DHT22;72587;50.746;8.246;2024-02-21T04:59:05;7.20;99.90
82836;DHT22;72587;50.746;8.246;2024-02-21T05:01:31;7.20;99.90
82836;DHT22;72587;50.746;8.246;2024-02-21T05:03:56;7.20;99.90
82836;DHT22;72587;50.746;8.246;2024-02-21T05:06:22;7.20;99.90
82836;DHT22;72587;50.746;8.246;2024-02-21T05:08:47;7.20;99.90
82836;DHT22;72587;50.746;8.246;2024-02-21T05:11:13;7.20;99.90
82836;DHT22;72587;50.746;8.246;2024-02-21T05:13:39;7.30;99.90
82836;DHT22;72587;50.746;8.246;2024-02-21T05:16:05;7.30;99.90
82836;DHT22;72587;50.746;8.246;2024-02-21T05:18:32;7.30;99.90
82836;DHT22;72587;50.746;8.246;2024-02-21T05:20:58;7.30;99.90
82836;DHT22;72587;50.746;8.246;2024-02-21T05:23:24;7.30;99.90
82836;DHT22;72587;50.746;8.246;2024-02-21T05:25:49;7.30;99.90
82836;DHT22;72587;50.746;8.246;2024-02-21T05:28:15;7.30;99.90
82836;DHT22;72587;50.746;8.246;2024-02-21T05:30:40;7.30;99.90
82836;DHT22;72587;50.746;8.246;2024-02-21T05:33:08;7.20;99.90
82836;DHT22;72587;50.746;8.246;2024-02-21T05:35:34;7.30;99.90
82836;DHT22;72587;50.746;8.246;2024-02-21T05:38:00;7.20;99.90
82836;DHT22;72587;50.746;8.246;2024-02-21T05:40:26;7.20;99.90
82836;DHT22;72587;50.746;8.246;2024-02-21T05:42:52;7.20;99.90
82836;DHT22;72587;50.746;8.246;2024-02-21T05:45:18;7.20;99.90
82836;DHT22;72587;50.746;8.246;2024-02-21T05:47:44;7.20;99.90
82836;DHT22;72587;50.746;8.246;2024-02-21T05:50:10;7.20;99.90
82836;DHT22;72587;50.746;8.246;2024-02-21T05:52:35;7.20;99.90
82836;DHT22;72587;50.746;8.246;2024-02-21T05:55:01;7.20;99.90
82836;DHT22;72587;50.746;8.246;2024-02-21T05:57:26;7.30;99.90
82836;DHT22;72587;50.746;8.246;2024-02-21T05:59:52;7.20;99.90
82836;DHT22;72587;50.746;8.246;2024-02-21T06:02:18;7.30;99.90
82836;DHT22;72587;50.746;8.246;2024-02-21T06:04:43;7.30;99.90
82836;DHT22;72587;50.746;8.246;2024-02-21T06:07:09;7.20;99.90
82836;DHT22;72587;50.746;8.246;2024-02-21T06:09:35;7.20;99.90
82836;DHT22;72587;50.746;8.246;2024-02-21T06:12:00;7.30;99.90
82836;DHT22;72587;50.746;8.246;2024-02-21T06:14:26;7.20;99.90
82836;DHT22;72587;50.746;8.246;2024-02-21T06:16:52;7.20;99.90
82836;DHT22;72587;50.746;8.246;2024-02-21T06:19:17;7.20;99.90
82836;DHT22;72587;50.746;8.246;2024-02-21T06:21:43;7.20;99.90
82836;DHT22;72587;50.746;8.246;2024-02-21T06:24:09;7.20;99.90
82836;DHT22;72587;50.746;8.246;2024-02-21T06:26:34;7.20;99.90
82836;DHT22;72587;50.746;8.246;2024-02-21T06:29:03;7.30;99.90
82836;DHT22;72587;50.746;8.246;2024-02-21T06:31:29;7.20;99.90
82836;DHT22;72587;50.746;8.246;2024-02-21T06:33:54;7.20;99.90
82836;DHT22;72587;50.746;8.246;2024-02-21T06:36:20;7.20;99.90
82836;DHT22;72587;50.746;8.246;2024-02-21T06:38:46;7.30;99.90
82836;DHT22;72587;50.746;8.246;2024-02-21T06:41:16;7.30;99.90
82836;DHT22;72587;50.746;8.246;2024-02-21T06:43:42;7.30;99.90
82836;DHT22;72587;50.746;8.246;2024-02-21T06:46:07;7.40;99.90
82836;DHT22;72587;50.746;8.246;2024-02-21T06:48:33;7.40;99.90
82836;DHT22;72587;50.746;8.246;2024-02-21T06:50:58;7.30;99.90
82836;DHT22;72587;50.746;8.246;2024-02-21T06:53:24;7.40;99.90
82836;DHT22;72587;50.746;8.246;2024-02-21T06:55:49;7.40;99.90
82836;DHT22;72587;50.746;8.246;2024-02-21T06:58:15;7.40;99.90
82836;DHT22;72587;50.746;8.246;2024-02-21T07:00:42;7.40;99.90
82836;DHT22;72587;50.746;8.246;2024-02-21T07:03:08;7.40;99.90
82836;DHT22;72587;50.746;8.246;2024-02-21T07:05:34;7.30;99.90
82836;DHT22;72587;50.746;8.246;2024-02-21T07:07:59;7.40;99.90
82836;DHT22;72587;50.746;8.246;2024-02-21T07:10:25;7.30;99.90
82836;DHT22;72587;50.746;8.246;2024-02-21T07:12:51;7.30;99.90
82836;DHT22;72587;50.746;8.246;2024-02-21T07:15:18;7.30;99.90
82836;DHT22;72587;50.746;8.246;2024-02-21T07:17:43;7.20;99.90
82836;DHT22;72587;50.746;8.246;2024-02-21T07:20:09;7.30;99.90
82836;DHT22;72587;50.746;8.246;2024-02-21T07:22:35;7.30;99.90
82836;DHT22;72587;50.746;8.246;2024-02-21T07:25:00;7.20;99.90
82836;DHT22;72587;50.746;8.246;2024-02-21T07:27:26;7.20;99.90
82836;DHT22;72587;50.746;8.246;2024-02-21T07:29:56;7.30;99.90
82836;DHT22;72587;50.746;8.246;2024-02-21T07:32:21;7.30;99.90
82836;DHT22;72587;50.746;8.246;2024-02-21T07:34:47;7.30;99.90
82836;DHT22;72587;50.746;8.246;2024-02-21T07:37:12;7.40;99.90
82836;DHT22;72587;50.746;8.246;2024-02-21T07:39:38;7.40;99.90
82836;DHT22;72587;50.746;8.246;2024-02-21T07:42:04;7.40;99.90
82836;DHT22;72587;50.746;8.246;2024-02-21T07:44:31;7.40;99.90
82836;DHT22;72587;50.746;8.246;2024-02-21T07:46:58;7.50;99.90
82836;DHT22;72587;50.746;8.246;2024-02-21T07:49:24;7.50;99.90
82836;DHT22;72587;50.746;8.246;2024-02-21T07:51:50;7.50;99.90
82836;DHT22;72587;50.746;8.246;2024-02-21T07:54:15;7.50;99.90
82836;DHT22;72587;50.746;8.246;2024-02-21T07:56:41;7.50;99.90
82836;DHT22;72587;50.746;8.246;2024-02-21T07:59:06;7.40;99.90
82836;DHT22;72587;50.746;8.246;2024-02-21T08:01:33;7.60;99.90
82836;DHT22;72587;50.746;8.246;2024-02-21T08:03:58;7.60;99.90
82836;DHT22;72587;50.746;8.246;2024-02-21T08:06:24;7.50;99.90
82836;DHT22;72587;50.746;8.246;2024-02-21T08:08:50;7.50;99.90
82836;DHT22;72587;50.746;8.246;2024-02-21T08:11:16;7.60;99.90
82836;DHT22;72587;50.746;8.246;2024-02-21T08:13:41;7.80;99.90
82836;DHT22;72587;50.746;8.246;2024-02-21T08:16:07;7.70;99.90
82836;DHT22;72587;50.746;8.246;2024-02-21T08:18:32;7.80;99.90
82836;DHT22;72587;50.746;8.246;2024-02-21T08:21:01;7.90;99.90
82836;DHT22;72587;50.746;8.246;2024-02-21T08:23:28;7.90;99.90
82836;DHT22;72587;50.746;8.246;2024-02-21T08:25:54;8.00;99.90
82836;DHT22;72587;50.746;8.246;2024-02-21T08:28:20;7.90;99.90
82836;DHT22;72587;50.746;8.246;2024-02-21T08:30:45;7.90;99.90
82836;DHT22;72587;50.746;8.246;2024-02-21T08:33:14;7.90;99.90
82836;DHT22;72587;50.746;8.246;2024-02-21T08:35:40;8.00;99.90
82836;DHT22;72587;50.746;8.246;2024-02-21T08:38:06;7.90;99.90
82836;DHT22;72587;50.746;8.246;2024-02-21T08:40:31;7.90;99.90
82836;DHT22;72587;50.746;8.246;2024-02-21T08:42:57;7.90;99.90
82836;DHT22;72587;50.746;8.246;2024-02-21T08:45:22;7.90;99.90
82836;DHT22;72587;50.746;8.246;2024-02-21T08:47:48;8.10;99.90
82836;DHT22;72587;50.746;8.246;2024-02-21T08:50:13;8.10;99.90
82836;DHT22;72587;50.746;8.246;2024-02-21T08:52:39;8.10;99.90
82836;DHT22;72587;50.746;8.246;2024-02-21T08:55:05;8.10;99.90
82836;DHT22;72587;50.746;8.246;2024-02-21T08:57:31;8.00;99.90
82836;DHT22;72587;50.746;8.246;2024-02-21T09:00:05;8.00;99.90
82836;DHT22;72587;50.746;8.246;2024-02-21T09:02:36;8.00;99.90
82836;DHT22;72587;50.746;8.246;2024-02-21T09:05:03;8.00;99.90
82836;DHT22;72587;50.746;8.246;2024-02-21T09:07:30;8.00;99.90
82836;DHT22;72587;50.746;8.246;2024-02-21T09:09:56;8.00;99.90
82836;DHT22;72587;50.746;8.246;2024-02-21T09:12:21;8.00;99.90
82836;DHT22;72587;50.746;8.246;2024-02-21T09:14:47;8.00;99.90
82836;DHT22;72587;50.746;8.246;2024-02-21T09:17:16;8.10;99.90
82836;DHT22;72587;50.746;8.246;2024-02-21T09:19:43;8.20;99.90
82836;DHT22;72587;50.746;8.246;2024-02-21T09:22:09;8.30;99.90
82836;DHT22;72587;50.746;8.246;2024-02-21T09:24:34;8.40;99.90
82836;DHT22;72587;50.746;8.246;2024-02-21T09:27:00;8.60;99.90
82836;DHT22;72587;50.746;8.246;2024-02-21T09:29:26;8.80;99.90
82836;DHT22;72587;50.746;8.246;2024-02-21T09:31:51;8.90;99.90
82836;DHT22;72587;50.746;8.246;2024-02-21T09:34:17;9.00;99.90
82836;DHT22;72587;50.746;8.246;2024-02-21T09:36:43;9.20;99.90
82836;DHT22;72587;50.746;8.246;2024-02-21T09:39:10;9.20;99.90
82836;DHT22;72587;50.746;8.246;2024-02-21T09:41:45;9.30;99.90
82836;DHT22;72587;50.746;8.246;2024-02-21T09:44:13;9.40;99.90
82836;DHT22;72587;50.746;8.246;2024-02-21T09:46:57;9.50;99.90
82836;DHT22;72587;50.746;8.246;2024-02-21T09:49:30;9.60;99.90
82836;DHT22;72587;50.746;8.246;2024-02-21T09:52:04;9.80;99.90
82836;DHT22;72587;50.746;8.246;2024-02-21T09:54:30;10.00;99.90
82836;DHT22;72587;50.746;8.246;2024-02-21T09:56:56;10.00;99.90
82836;DHT22;72587;50.746;8.246;2024-02-21T09:59:23;9.80;99.90
82836;DHT22;72587;50.746;8.246;2024-02-21T10:01:49;9.60;99.90
82836;DHT22;72587;50.746;8.246;2024-02-21T10:04:20;9.60;99.90
82836;DHT22;72587;50.746;8.246;2024-02-21T10:06:45;9.70;99.90
82836;DHT22;72587;50.746;8.246;2024-02-21T10:09:24;9.70;99.90
82836;DHT22;72587;50.746;8.246;2024-02-21T10:11:53;9.80;99.90
82836;DHT22;72587;50.746;8.246;2024-02-21T10:14:19;9.80;99.90
82836;DHT22;72587;50.746;8.246;2024-02-21T10:16:49;10.10;99.90
82836;DHT22;72587;50.746;8.246;2024-02-21T10:19:19;10.30;99.90
82836;DHT22;72587;50.746;8.246;2024-02-21T10:22:06;10.50;99.90
82836;DHT22;72587;50.746;8.246;2024-02-21T10:24:34;10.60;99.90
82836;DHT22;72587;50.746;8.246;2024-02-21T10:27:05;10.60;99.90
82836;DHT22;72587;50.746;8.246;2024-02-21T10:29:37;10.40;99.90
82836;DHT22;72587;50.746;8.246;2024-02-21T10:32:06;10.40;99.90
82836;DHT22;72587;50.746;8.246;2024-02-21T10:34:32;10.30;99.90
82836;DHT22;72587;50.746;8.246;2024-02-21T10:37:06;10.30;99.90
82836;DHT22;72587;50.746;8.246;2024-02-21T10:39:33;10.50;99.90
82836;DHT22;72587;50.746;8.246;2024-02-21T10:42:03;10.50;99.90
82836;DHT22;72587;50.746;8.246;2024-02-21T10:44:30;10.70;99.90
82836;DHT22;72587;50.746;8.246;2024-02-21T10:46:57;11.00;99.90
82836;DHT22;72587;50.746;8.246;2024-02-21T10:49:24;11.20;99.90
82836;DHT22;72587;50.746;8.246;2024-02-21T10:52:03;11.20;99.90
82836;DHT22;72587;50.746;8.246;2024-02-21T10:54:38;11.10;99.90
82836;DHT22;72587;50.746;8.246;2024-02-21T10:57:05;11.10;99.90
82836;DHT22;72587;50.746;8.246;2024-02-21T10:59:32;11.10;99.90
82836;DHT22;72587;50.746;8.246;2024-02-21T11:01:58;11.20;99.90
82836;DHT22;72587;50.746;8.246;2024-02-21T11:04:24;11.20;99.90
82836;DHT22;72587;50.746;8.246;2024-02-21T11:06:51;11.10;99.90
82836;DHT22;72587;50.746;8.246;2024-02-21T11:09:16;11.00;99.90
82836;DHT22;72587;50.746;8.246;2024-02-21T11:11:44;11.00;99.90
82836;DHT22;72587;50.746;8.246;2024-02-21T11:14:20;11.10;99.90
82836;DHT22;72587;50.746;8.246;2024-02-21T11:16:46;11.00;99.90
82836;DHT22;72587;50.746;8.246;2024-02-21T11:19:23;11.10;99.90
82836;DHT22;72587;50.746;8.246;2024-02-21T11:21:52;10.90;99.90
82836;DHT22;72587;50.746;8.246;2024-02-21T11:26:54;10.70;99.90
82836;DHT22;72587;50.746;8.246;2024-02-21T11:29:24;10.70;99.90
82836;DHT22;72587;50.746;8.246;2024-02-21T11:31:53;10.70;99.90
82836;DHT22;72587;50.746;8.246;2024-02-21T11:34:19;10.50;99.90
82836;DHT22;72587;50.746;8.246;2024-02-21T11:36:52;10.50;99.90
82836;DHT22;72587;50.746;8.246;2024-02-21T11:41:44;10.70;99.90
82836;DHT22;72587;50.746;8.246;2024-02-21T11:44:10;10.90;99.90
82836;DHT22;72587;50.746;8.246;2024-02-21T11:46:36;10.80;99.90
82836;DHT22;72587;50.746;8.246;2024-02-21T11:49:01;10.80;99.90
82836;DHT22;72587;50.746;8.246;2024-02-21T11:51:29;10.90;99.90
82836;DHT22;72587;50.746;8.246;2024-02-21T11:53:54;10.80;99.90
82836;DHT22;72587;50.746;8.246;2024-02-21T11:56:20;10.90;99.90
82836;DHT22;72587;50.746;8.246;2024-02-21T11:58:46;10.90;99.90
82836;DHT22;72587;50.746;8.246;2024-02-21T12:01:13;10.90;99.90
82836;DHT22;72587;50.746;8.246;2024-02-21T12:03:39;11.00;99.90
82836;DHT22;72587;50.746;8.246;2024-02-21T12:06:07;11.10;99.90
82836;DHT22;72587;50.746;8.246;2024-02-21T12:08:45;10.80;99.90
82836;DHT22;72587;50.746;8.246;2024-02-21T12:11:21;10.80;99.90
82836;DHT22;72587;50.746;8.246;2024-02-21T12:13:57;11.00;99.90
82836;DHT22;72587;50.746;8.246;2024-02-21T12:16:23;10.90;99.90
82836;DHT22;72587;50.746;8.246;2024-02-21T12:18:49;11.00;99.90
82836;DHT22;72587;50.746;8.246;2024-02-21T12:21:15;11.10;99.90
82836;DHT22;72587;50.746;8.246;2024-02-21T12:23:41;11.30;99.90
82836;DHT22;72587;50.746;8.246;2024-02-21T12:26:07;11.20;99.90
82836;DHT22;72587;50.746;8.246;2024-02-21T12:28:33;11.20;99.90
82836;DHT22;72587;50.746;8.246;2024-02-21T12:30:59;10.90;99.90
82836;DHT22;72587;50.746;8.246;2024-02-21T12:33:24;10.80;99.90
82836;DHT22;72587;50.746;8.246;2024-02-21T12:35:50;10.70;99.90
82836;DHT22;72587;50.746;8.246;2024-02-21T12:38:16;10.70;99.90
82836;DHT22;72587;50.746;8.246;2024-02-21T12:40:43;10.70;99.90
82836;DHT22;72587;50.746;8.246;2024-02-21T12:43:08;10.60;99.90
82836;DHT22;72587;50.746;8.246;2024-02-21T12:45:35;10.50;99.90
82836;DHT22;72587;50.746;8.246;2024-02-21T12:48:01;10.60;99.90
82836;DHT22;72587;50.746;8.246;2024-02-21T12:50:26;10.80;99.90
82836;DHT22;72587;50.746;8.246;2024-02-21T12:52:52;10.80;99.90
82836;DHT22;72587;50.746;8.246;2024-02-21T12:55:18;10.60;99.90
82836;DHT22;72587;50.746;8.246;2024-02-21T12:57:43;10.60;99.90
82836;DHT22;72587;50.746;8.246;2024-02-21T13:00:09;10.60;99.90
82836;DHT22;72587;50.746;8.246;2024-02-21T13:02:36;10.50;99.90
82836;DHT22;72587;50.746;8.246;2024-02-21T13:05:02;10.50;99.90
82836;DHT22;72587;50.746;8.246;2024-02-21T13:07:29;10.40;99.90
82836;DHT22;72587;50.746;8.246;2024-02-21T13:09:54;10.50;99.90
82836;DHT22;72587;50.746;8.246;2024-02-21T13:12:20;10.40;99.90
82836;DHT22;72587;50.746;8.246;2024-02-21T13:14:45;10.50;99.90
82836;DHT22;72587;50.746;8.246;2024-02-21T13:17:11;10.50;99.90
82836;DHT22;72587;50.746;8.246;2024-02-21T13:19:36;10.60;99.90
82836;DHT22;72587;50.746;8.246;2024-02-21T13:22:02;10.70;99.90
82836;DHT22;72587;50.746;8.246;2024-02-21T13:24:29;10.50;99.90
82836;DHT22;72587;50.746;8.246;2024-02-21T13:26:54;10.50;99.90
82836;DHT22;72587;50.746;8.246;2024-02-21T13:29:20;10.60;99.90
82836;DHT22;72587;50.746;8.246;2024-02-21T13:31:46;10.70;99.90
82836;DHT22;72587;50.746;8.246;2024-02-21T13:34:11;10.80;99.90
82836;DHT22;72587;50.746;8.246;2024-02-21T13:36:37;11.00;99.90
82836;DHT22;72587;50.746;8.246;2024-02-21T13:39:02;11.10;99.90
82836;DHT22;72587;50.746;8.246;2024-02-21T13:41:30;11.30;99.90
82836;DHT22;72587;50.746;8.246;2024-02-21T13:43:56;11.40;99.90
82836;DHT22;72587;50.746;8.246;2024-02-21T13:46:22;11.40;99.90
82836;DHT22;72587;50.746;8.246;2024-02-21T13:48:47;11.40;99.90
82836;DHT22;72587;50.746;8.246;2024-02-21T13:51:13;11.10;99.90
82836;DHT22;72587;50.746;8.246;2024-02-21T13:53:39;11.10;99.90
82836;DHT22;72587;50.746;8.246;2024-02-21T13:56:05;11.30;99.90
82836;DHT22;72587;50.746;8.246;2024-02-21T13:58:31;11.40;99.90
82836;DHT22;72587;50.746;8.246;2024-02-21T14:00:56;11.50;99.90
82836;DHT22;72587;50.746;8.246;2024-02-21T14:03:22;11.70;99.90
82836;DHT22;72587;50.746;8.246;2024-02-21T14:05:47;11.80;99.90
82836;DHT22;72587;50.746;8.246;2024-02-21T14:08:16;11.60;99.90
82836;DHT22;72587;50.746;8.246;2024-02-21T14:10:42;11.50;99.90
82836;DHT22;72587;50.746;8.246;2024-02-21T14:13:07;11.40;99.90
82836;DHT22;72587;50.746;8.246;2024-02-21T14:15:33;11.40;99.90
82836;DHT22;72587;50.746;8.246;2024-02-21T14:17:59;11.40;99.90
82836;DHT22;72587;50.746;8.246;2024-02-21T14:20:24;11.30;99.90
82836;DHT22;72587;50.746;8.246;2024-02-21T14:22:50;11.20;99.90
82836;DHT22;72587;50.746;8.246;2024-02-21T14:25:15;11.10;99.90
82836;DHT22;72587;50.746;8.246;2024-02-21T14:27:41;11.00;99.90
82836;DHT22;72587;50.746;8.246;2024-02-21T14:30:09;11.20;99.90
82836;DHT22;72587;50.746;8.246;2024-02-21T14:32:36;11.20;99.90
82836;DHT22;72587;50.746;8.246;2024-02-21T14:35:02;11.20;99.90
82836;DHT22;72587;50.746;8.246;2024-02-21T14:37:28;11.20;99.90
82836;DHT22;72587;50.746;8.246;2024-02-21T14:39:53;11.20;99.90
82836;DHT22;72587;50.746;8.246;2024-02-21T14:42:19;11.40;99.90
82836;DHT22;72587;50.746;8.246;2024-02-21T14:44:44;11.40;99.90
82836;DHT22;72587;50.746;8.246;2024-02-21T14:47:10;11.20;99.90
82836;DHT22;72587;50.746;8.246;2024-02-21T14:49:35;11.20;99.90
82836;DHT22;72587;50.746;8.246;2024-02-21T14:52:01;11.10;99.90
82836;DHT22;72587;50.746;8.246;2024-02-21T14:54:28;11.10;99.90
82836;DHT22;72587;50.746;8.246;2024-02-21T14:56:53;11.10;99.90
82836;DHT22;72587;50.746;8.246;2024-02-21T14:59:19;11.10;99.90
82836;DHT22;72587;50.746;8.246;2024-02-21T15:01:45;11.00;99.90
82836;DHT22;72587;50.746;8.246;2024-02-21T15:04:11;11.00;99.90
82836;DHT22;72587;50.746;8.246;2024-02-21T15:06:37;10.90;99.90
82836;DHT22;72587;50.746;8.246;2024-02-21T15:09:03;10.90;99.90
82836;DHT22;72587;50.746;8.246;2024-02-21T15:11:29;10.90;99.90
82836;DHT22;72587;50.746;8.246;2024-02-21T15:13:55;10.90;99.90
82836;DHT22;72587;50.746;8.246;2024-02-21T15:16:21;10.90;99.90
82836;DHT22;72587;50.746;8.246;2024-02-21T15:18:46;10.90;99.90
82836;DHT22;72587;50.746;8.246;2024-02-21T15:21:12;11.00;99.90
82836;DHT22;72587;50.746;8.246;2024-02-21T15:23:40;11.00;99.90
82836;DHT22;72587;50.746;8.246;2024-02-21T15:26:06;10.90;99.90
82836;DHT22;72587;50.746;8.246;2024-02-21T15:28:32;10.70;99.90
82836;DHT22;72587;50.746;8.246;2024-02-21T15:30:57;10.70;99.90
82836;DHT22;72587;50.746;8.246;2024-02-21T15:33:23;10.60;99.90
82836;DHT22;72587;50.746;8.246;2024-02-21T15:35:49;10.30;99.90
82836;DHT22;72587;50.746;8.246;2024-02-21T15:38:16;10.30;99.90
82836;DHT22;72587;50.746;8.246;2024-02-21T15:40:41;10.30;99.90